CYPX

Puvirnituq Airport

ICAO Code CYPX
IATA Code YPX
Name Puvirnituq Airport
Location Puvirnituq, Quebec, CA
Elevation 83 Feet / 25.3 Meters
Latitude 60.05222222
Longitude -77.28750000
METAR CYPX 080714Z AUTO 03002KT 9SM OVC023 00/M01 A3016 RMK SLP218
Extra information Display Charts and CFS
Display NOTAMS
Runway Length Width Surface Elevation
01 6299 ft 148 ft GVL 54 ft
19 6299 ft 148 ft GVL 83 ft